Time;durP1;ratioP1;P1;durP2;ratioP2;P2;SDS_P1;SDS_P2;PMS_P1;PMS_P2;Temp;Humidity;BMP_temperature;BMP_pressure;BME280_temperature;BME280_humidity;BME280_pressure;Samples;Min_cycle;Max_cycle;Signal;HPM_P1;HPM_P2
2022/01/18 00:01:59;;;;;;;16.75;4.07;;;;;;;;;;5004223;28;20057;-65
2022/01/18 00:04:30;;;;;;;16.63;3.55;;;;;;;;;;4979392;28;20060;-67
2022/01/18 00:07:01;;;;;;;14.95;3.55;;;;;;;;;;4972687;28;20050;-67
2022/01/18 00:09:31;;;;;;;14.82;3.65;;;;;;;;;;4973226;28;20435;-64
2022/01/18 00:12:27;;;;;;;10.73;3.70;;;;;;;;;;4959983;28;20066;-65
2022/01/18 00:15:15;;;;;;;15.63;3.72;;;;;;;;;;4966490;28;20132;-64
2022/01/18 00:23:40;;;;;;;17.90;4.47;;;;;;;;;;4964958;28;20525;-65
2022/01/18 00:26:12;;;;;;;13.05;4.10;;;;;;;;;;4971648;28;20064;-65
2022/01/18 00:28:51;;;;;;;20.08;3.63;;;;;;;;;;4939144;28;20059;-65
2022/01/18 00:34:14;;;;;;;22.75;3.80;;;;;;;;;;4972494;28;20055;-65
2022/01/18 00:39:20;;;;;;;18.42;3.03;;;;;;;;;;4986426;28;20093;-65
2022/01/18 00:41:51;;;;;;;18.15;3.33;;;;;;;;;;5011182;28;20042;-66
2022/01/18 00:44:22;;;;;;;14.07;3.67;;;;;;;;;;5016302;28;20057;-65
2022/01/18 00:46:52;;;;;;;12.18;2.95;;;;;;;;;;5021700;28;20041;-65
2022/01/18 00:49:23;;;;;;;14.20;3.15;;;;;;;;;;5022002;28;20056;-66
2022/01/18 00:51:57;;;;;;;22.77;2.83;;;;;;;;;;4986500;28;20050;-65
2022/01/18 00:54:36;;;;;;;12.15;2.88;;;;;;;;;;4986138;28;20054;-64
2022/01/18 00:57:08;;;;;;;14.13;2.85;;;;;;;;;;5026820;28;20045;-65
2022/01/18 00:59:40;;;;;;;21.05;3.45;;;;;;;;;;5030801;28;20056;-64
2022/01/18 01:02:18;;;;;;;11.40;2.80;;;;;;;;;;5029358;28;20160;-66
2022/01/18 01:04:49;;;;;;;10.85;2.10;;;;;;;;;;4999520;28;20063;-66
2022/01/18 01:07:22;;;;;;;15.82;3.17;;;;;;;;;;5024407;28;20501;-66
2022/01/18 01:09:53;;;;;;;16.60;2.25;;;;;;;;;;4991344;28;20060;-66
2022/01/18 01:12:26;;;;;;;13.18;2.65;;;;;;;;;;5041605;28;20049;-65
2022/01/18 01:15:04;;;;;;;11.38;2.33;;;;;;;;;;5041184;28;20057;-67
2022/01/18 01:34:40;;;;;;;15.75;2.72;;;;;;;;;;4960522;28;20062;-66
2022/01/18 01:43:13;;;;;;;15.40;2.50;;;;;;;;;;4951592;28;20047;-64
2022/01/18 01:45:44;;;;;;;15.32;2.67;;;;;;;;;;4944033;29;20067;-65
2022/01/18 01:48:17;;;;;;;18.45;2.22;;;;;;;;;;4917797;29;20052;-68
2022/01/18 01:50:53;;;;;;;11.27;2.45;;;;;;;;;;4951186;28;20066;-67
2022/01/18 01:53:25;;;;;;;13.13;2.72;;;;;;;;;;4903869;29;20096;-66
2022/01/18 01:55:56;;;;;;;16.40;2.15;;;;;;;;;;4941138;29;20059;-65
2022/01/18 01:58:27;;;;;;;12.68;2.35;;;;;;;;;;4912874;29;20052;-66
2022/01/18 02:01:05;;;;;;;13.23;2.53;;;;;;;;;;4913092;29;20425;-66
2022/01/18 02:03:38;;;;;;;10.23;1.80;;;;;;;;;;4946546;29;20051;-65
2022/01/18 02:06:09;;;;;;;20.65;2.47;;;;;;;;;;4900188;29;20109;-64
2022/01/18 02:08:39;;;;;;;16.98;2.45;;;;;;;;;;4944484;29;20070;-65
2022/01/18 02:11:10;;;;;;;10.32;2.60;;;;;;;;;;4922145;29;20051;-66
2022/01/18 02:13:41;;;;;;;18.50;2.35;;;;;;;;;;4929543;29;20055;-64
2022/01/18 02:21:45;;;;;;;11.40;2.22;;;;;;;;;;4931149;29;20060;-64
2022/01/18 02:21:53;;;;;;;11.30;2.08;;;;;;;;;;4932036;29;20079;-64
2022/01/18 02:24:24;;;;;;;8.15;2.03;;;;;;;;;;4950925;29;20058;-65
2022/01/18 02:26:55;;;;;;;11.70;2.28;;;;;;;;;;4967373;28;20062;-65
2022/01/18 02:29:25;;;;;;;12.63;2.13;;;;;;;;;;4901947;29;20055;-63
2022/01/18 02:31:56;;;;;;;8.98;2.05;;;;;;;;;;4950898;28;20070;-63
2022/01/18 02:34:28;;;;;;;9.25;2.60;;;;;;;;;;4934884;29;20578;-65
2022/01/18 02:36:58;;;;;;;7.05;1.92;;;;;;;;;;4917399;29;20416;-65
2022/01/18 02:39:31;;;;;;;11.77;2.22;;;;;;;;;;4939697;29;20044;-65
2022/01/18 02:42:05;;;;;;;15.68;2.25;;;;;;;;;;4994884;28;20457;-64
2022/01/18 02:44:36;;;;;;;13.95;1.83;;;;;;;;;;4989448;28;20058;-65
2022/01/18 02:47:07;;;;;;;11.40;1.70;;;;;;;;;;4989778;28;20410;-66
2022/01/18 02:49:38;;;;;;;14.10;2.05;;;;;;;;;;4970159;28;20494;-65
2022/01/18 02:52:08;;;;;;;8.98;1.73;;;;;;;;;;4938338;28;20063;-64
2022/01/18 02:54:38;;;;;;;13.18;2.05;;;;;;;;;;4950819;28;20054;-64
2022/01/18 02:57:15;;;;;;;5.68;1.95;;;;;;;;;;4935641;28;20062;-63
2022/01/18 02:59:56;;;;;;;9.65;2.17;;;;;;;;;;4950974;28;20407;-64
2022/01/18 03:05:17;;;;;;;7.43;2.13;;;;;;;;;;4950755;28;20443;-64
2022/01/18 03:07:48;;;;;;;7.75;1.73;;;;;;;;;;4950622;28;20058;-65
2022/01/18 03:10:20;;;;;;;10.82;2.28;;;;;;;;;;4951087;28;20161;-65
2022/01/18 03:12:50;;;;;;;11.57;1.80;;;;;;;;;;4954085;28;20507;-65
2022/01/18 03:15:21;;;;;;;8.90;1.98;;;;;;;;;;4969986;28;20059;-65
2022/01/18 03:17:51;;;;;;;5.90;1.55;;;;;;;;;;4948311;28;20542;-64
2022/01/18 03:20:23;;;;;;;8.32;1.80;;;;;;;;;;4950709;28;20626;-65
2022/01/18 03:22:53;;;;;;;10.10;1.80;;;;;;;;;;4937975;28;20043;-65
2022/01/18 03:28:25;;;;;;;7.68;1.42;;;;;;;;;;4930937;29;20515;-66
2022/01/18 03:31:00;;;;;;;9.70;1.88;;;;;;;;;;4931706;29;20063;-65
2022/01/18 03:33:30;;;;;;;8.40;1.50;;;;;;;;;;4950642;29;20152;-65
2022/01/18 03:36:01;;;;;;;9.20;1.75;;;;;;;;;;4919668;29;20072;-65
2022/01/18 03:38:32;;;;;;;8.68;1.73;;;;;;;;;;4918945;29;20426;-65
2022/01/18 03:41:04;;;;;;;10.20;1.45;;;;;;;;;;4950702;29;20056;-65
2022/01/18 03:43:35;;;;;;;6.15;1.48;;;;;;;;;;4885111;29;20160;-62
2022/01/18 03:46:06;;;;;;;7.68;1.42;;;;;;;;;;4942605;29;20066;-65
2022/01/18 03:48:38;;;;;;;9.43;1.70;;;;;;;;;;4931030;29;20047;-65
2022/01/18 03:51:09;;;;;;;8.23;1.55;;;;;;;;;;4931419;29;20574;-65
2022/01/18 03:53:39;;;;;;;11.02;1.63;;;;;;;;;;4902713;29;20083;-65
2022/01/18 03:56:09;;;;;;;4.07;1.27;;;;;;;;;;4903214;29;20055;-65
2022/01/18 03:58:40;;;;;;;10.02;1.83;;;;;;;;;;4934522;29;20447;-65
2022/01/18 04:01:10;;;;;;;7.60;1.70;;;;;;;;;;4934678;29;20051;-62
2022/01/18 04:03:40;;;;;;;8.77;1.63;;;;;;;;;;4920349;29;20071;-62
2022/01/18 04:06:11;;;;;;;9.80;1.45;;;;;;;;;;4954005;29;20066;-64
2022/01/18 04:08:42;;;;;;;8.13;1.63;;;;;;;;;;4969174;28;20067;-65
2022/01/18 04:11:11;;;;;;;7.25;1.67;;;;;;;;;;4953908;29;20059;-64
2022/01/18 04:13:42;;;;;;;6.75;1.45;;;;;;;;;;4958372;28;20510;-65
2022/01/18 04:16:12;;;;;;;3.88;1.67;;;;;;;;;;4965876;28;20162;-65
2022/01/18 04:18:54;;;;;;;6.63;1.60;;;;;;;;;;4972901;28;20065;-63
2022/01/18 04:27:02;;;;;;;6.85;1.42;;;;;;;;;;4953276;29;20063;-64
2022/01/18 04:29:32;;;;;;;5.32;1.60;;;;;;;;;;4953258;29;20066;-65
2022/01/18 04:32:03;;;;;;;7.68;1.25;;;;;;;;;;4953262;29;20059;-64
2022/01/18 04:34:34;;;;;;;8.48;1.25;;;;;;;;;;4953460;29;20455;-65
2022/01/18 04:37:04;;;;;;;4.03;1.35;;;;;;;;;;4933948;29;20057;-65
2022/01/18 04:39:38;;;;;;;9.52;2.00;;;;;;;;;;4917929;29;20535;-64
2022/01/18 04:42:35;;;;;;;8.00;1.58;;;;;;;;;;4934045;29;20709;-64
2022/01/18 04:50:37;;;;;;;4.63;1.05;;;;;;;;;;4937530;29;20062;-65
2022/01/18 04:53:07;;;;;;;5.50;1.20;;;;;;;;;;4924858;28;20055;-65
2022/01/18 04:55:37;;;;;;;2.47;1.08;;;;;;;;;;4933522;29;20063;-64
2022/01/18 04:58:07;;;;;;;3.60;1.30;;;;;;;;;;4933733;29;20063;-65
2022/01/18 05:00:37;;;;;;;5.43;1.40;;;;;;;;;;4933951;29;20075;-65
2022/01/18 05:03:08;;;;;;;8.13;1.33;;;;;;;;;;4971484;28;20059;-64
2022/01/18 05:05:39;;;;;;;10.77;1.33;;;;;;;;;;4936345;28;20444;-63
2022/01/18 05:08:13;;;;;;;7.07;1.52;;;;;;;;;;4961636;28;20047;-64
2022/01/18 05:10:50;;;;;;;5.53;1.60;;;;;;;;;;4971974;28;20527;-65
2022/01/18 05:24:30;;;;;;;;;;;;;;;;;;4933646;29;20054;-64
2022/01/18 05:27:02;;;;;;;11.00;1.50;;;;;;;;;;4952181;28;20401;-64
2022/01/18 05:29:32;;;;;;;5.10;1.48;;;;;;;;;;4952062;28;20059;-64
2022/01/18 05:32:02;;;;;;;7.20;1.60;;;;;;;;;;4951968;28;20435;-65
2022/01/18 05:34:33;;;;;;;4.65;1.63;;;;;;;;;;4971448;28;20070;-66
2022/01/18 05:37:04;;;;;;;9.93;2.58;;;;;;;;;;4971443;28;20411;-64
2022/01/18 05:39:34;;;;;;;8.38;2.00;;;;;;;;;;4948203;28;20068;-64
2022/01/18 05:42:05;;;;;;;10.25;1.88;;;;;;;;;;4932957;29;20060;-64
2022/01/18 05:44:35;;;;;;;6.38;1.83;;;;;;;;;;4932918;29;20056;-65
2022/01/18 05:47:06;;;;;;;11.40;2.10;;;;;;;;;;4932881;29;20523;-64
2022/01/18 05:49:36;;;;;;;7.22;2.15;;;;;;;;;;4916886;29;20071;-65
2022/01/18 05:52:06;;;;;;;6.70;2.10;;;;;;;;;;4932518;29;20101;-64
2022/01/18 05:54:37;;;;;;;7.82;2.05;;;;;;;;;;4971250;28;20063;-64
2022/01/18 05:57:07;;;;;;;6.63;2.40;;;;;;;;;;4970799;28;20050;-65
2022/01/18 05:59:44;;;;;;;11.35;1.75;;;;;;;;;;4971211;28;20070;-64
2022/01/18 06:02:42;;;;;;;6.43;2.00;;;;;;;;;;4999218;28;20391;-64
2022/01/18 06:07:58;;;;;;;6.78;2.67;;;;;;;;;;5029771;28;20053;-64
2022/01/18 06:10:29;;;;;;;7.47;1.92;;;;;;;;;;5013281;28;20054;-64
2022/01/18 06:13:01;;;;;;;6.00;1.80;;;;;;;;;;4993502;28;20058;-64
2022/01/18 06:15:33;;;;;;;9.25;2.17;;;;;;;;;;5009670;28;20054;-64
2022/01/18 06:18:04;;;;;;;5.30;2.05;;;;;;;;;;5009928;28;20134;-64
2022/01/18 06:20:35;;;;;;;5.95;1.98;;;;;;;;;;4962670;28;20061;-64
2022/01/18 06:23:05;;;;;;;7.65;1.85;;;;;;;;;;4960866;28;20057;-64
2022/01/18 06:25:36;;;;;;;4.20;1.98;;;;;;;;;;4993797;28;20085;-64
2022/01/18 06:28:07;;;;;;;6.78;2.22;;;;;;;;;;5009589;28;20418;-65
2022/01/18 06:30:38;;;;;;;8.07;2.92;;;;;;;;;;5009050;28;20057;-64
2022/01/18 06:33:08;;;;;;;6.68;2.47;;;;;;;;;;4993606;28;20536;-63
2022/01/18 06:35:39;;;;;;;8.15;2.75;;;;;;;;;;5009571;28;20046;-64
2022/01/18 06:38:10;;;;;;;5.28;2.55;;;;;;;;;;5009627;28;20090;-64
2022/01/18 06:40:41;;;;;;;8.90;2.30;;;;;;;;;;4977958;28;20060;-65
2022/01/18 06:43:11;;;;;;;9.60;2.90;;;;;;;;;;5011795;28;20052;-64
2022/01/18 06:45:42;;;;;;;6.32;1.85;;;;;;;;;;5029215;28;20050;-65
2022/01/18 06:48:13;;;;;;;10.57;2.22;;;;;;;;;;5029258;28;20041;-64
2022/01/18 06:50:43;;;;;;;6.50;1.92;;;;;;;;;;5031360;28;20429;-65
2022/01/18 06:53:14;;;;;;;9.00;2.40;;;;;;;;;;5028933;28;20073;-65
2022/01/18 06:55:50;;;;;;;7.35;2.33;;;;;;;;;;5029290;28;20421;-65
2022/01/18 06:58:21;;;;;;;6.95;2.75;;;;;;;;;;5028983;28;20518;-65
2022/01/18 07:00:52;;;;;;;11.40;3.15;;;;;;;;;;5028764;28;20083;-64
2022/01/18 07:03:22;;;;;;;10.63;2.85;;;;;;;;;;5029148;28;20065;-64
2022/01/18 07:05:52;;;;;;;7.47;2.63;;;;;;;;;;5028623;28;20057;-65
2022/01/18 07:08:23;;;;;;;7.10;2.63;;;;;;;;;;5028736;28;20532;-64
2022/01/18 07:10:54;;;;;;;5.28;2.45;;;;;;;;;;5012369;28;20061;-64
2022/01/18 07:13:24;;;;;;;6.78;2.30;;;;;;;;;;5028925;28;20072;-64
2022/01/18 07:15:54;;;;;;;9.63;2.40;;;;;;;;;;5012430;28;20050;-64
2022/01/18 07:18:25;;;;;;;7.32;2.35;;;;;;;;;;5028887;28;20065;-65
2022/01/18 07:20:56;;;;;;;7.82;2.67;;;;;;;;;;5028946;28;20049;-67
2022/01/18 07:23:26;;;;;;;7.57;2.50;;;;;;;;;;5028720;28;20049;-64
2022/01/18 07:25:56;;;;;;;6.95;2.47;;;;;;;;;;5012432;28;20062;-63
2022/01/18 07:28:27;;;;;;;7.10;2.20;;;;;;;;;;5016119;28;20060;-64
2022/01/18 07:30:57;;;;;;;8.13;2.03;;;;;;;;;;5032594;28;20060;-65
2022/01/18 07:33:28;;;;;;;8.15;2.05;;;;;;;;;;5015769;28;20056;-64
2022/01/18 07:35:58;;;;;;;8.18;2.10;;;;;;;;;;5032764;28;20049;-64
2022/01/18 07:38:28;;;;;;;7.28;2.13;;;;;;;;;;5033666;28;20509;-64
2022/01/18 07:40:58;;;;;;;5.28;1.77;;;;;;;;;;5034616;28;20046;-64
2022/01/18 07:43:29;;;;;;;7.55;2.08;;;;;;;;;;5034847;28;20042;-64
2022/01/18 07:46:00;;;;;;;7.57;1.88;;;;;;;;;;5034717;28;20052;-64
2022/01/18 07:48:30;;;;;;;6.70;1.90;;;;;;;;;;5034973;28;20041;-64
2022/01/18 07:51:00;;;;;;;5.72;1.60;;;;;;;;;;5034457;28;20041;-63
2022/01/18 07:53:31;;;;;;;6.78;2.17;;;;;;;;;;5034718;28;20038;-64
2022/01/18 07:56:01;;;;;;;6.13;2.33;;;;;;;;;;5034493;28;20053;-64
2022/01/18 07:58:32;;;;;;;6.13;2.35;;;;;;;;;;5049105;28;20520;-64
2022/01/18 08:01:02;;;;;;;6.65;2.25;;;;;;;;;;5015884;28;20053;-65
2022/01/18 08:03:33;;;;;;;10.93;2.47;;;;;;;;;;5049513;28;20397;-64
2022/01/18 08:06:04;;;;;;;5.93;1.95;;;;;;;;;;5032242;28;20433;-65
2022/01/18 08:08:35;;;;;;;4.70;2.17;;;;;;;;;;5034439;28;20053;-64
2022/01/18 08:11:06;;;;;;;;;;;;;;;;;;5035058;28;20048;-65
2022/01/18 08:13:41;;;;;;;5.07;2.15;;;;;;;;;;4983804;28;19921;-65
2022/01/18 08:16:46;;;;;;;9.52;2.47;;;;;;;;;;5015340;28;20061;-61
2022/01/18 08:19:04;;;;;;;7.18;2.17;;;;;;;;;;5015892;28;20116;-66
2022/01/18 08:21:36;;;;;;;6.63;1.98;;;;;;;;;;5034392;28;20060;-65
2022/01/18 08:24:06;;;;;;;5.03;2.05;;;;;;;;;;5015774;28;20049;-64
2022/01/18 08:26:37;;;;;;;10.95;2.45;;;;;;;;;;5031395;28;20505;-65
2022/01/18 08:29:08;;;;;;;7.30;2.13;;;;;;;;;;5031284;28;20065;-66
2022/01/18 08:31:42;;;;;;;5.95;2.53;;;;;;;;;;4994089;28;20045;-64
2022/01/18 08:34:12;;;;;;;9.20;2.72;;;;;;;;;;5034886;28;20063;-65
2022/01/18 08:36:42;;;;;;;8.15;2.88;;;;;;;;;;5051703;28;20728;-64
2022/01/18 08:39:13;;;;;;;11.23;2.67;;;;;;;;;;5034040;28;20061;-66
2022/01/18 08:41:43;;;;;;;7.93;2.95;;;;;;;;;;5031033;28;20057;-66
2022/01/18 08:44:13;;;;;;;8.65;2.83;;;;;;;;;;5031546;28;20457;-65
2022/01/18 08:46:44;;;;;;;16.40;3.38;;;;;;;;;;5031349;28;20150;-65
2022/01/18 08:49:15;;;;;;;8.77;3.15;;;;;;;;;;5031367;28;20042;-65
2022/01/18 08:51:45;;;;;;;6.68;2.75;;;;;;;;;;5011069;28;20051;-65
2022/01/18 08:54:15;;;;;;;9.82;2.95;;;;;;;;;;5011735;28;20096;-66
2022/01/18 08:56:46;;;;;;;7.38;3.38;;;;;;;;;;5011107;28;20526;-65
2022/01/18 08:59:36;;;;;;;13.13;3.10;;;;;;;;;;5011404;28;20138;-65
2022/01/18 09:02:08;;;;;;;16.13;3.45;;;;;;;;;;5011163;28;20061;-65
2022/01/18 09:04:39;;;;;;;8.77;2.70;;;;;;;;;;4984970;28;20518;-65
2022/01/18 09:07:11;;;;;;;12.18;3.25;;;;;;;;;;4991733;28;20054;-65
2022/01/18 09:09:42;;;;;;;8.07;2.80;;;;;;;;;;4991435;28;20058;-66
2022/01/18 09:12:15;;;;;;;8.35;2.38;;;;;;;;;;4962720;28;20050;-66
2022/01/18 09:14:45;;;;;;;10.75;3.10;;;;;;;;;;4911285;29;20070;-65
2022/01/18 09:17:15;;;;;;;9.32;3.17;;;;;;;;;;4892582;29;20107;-65
2022/01/18 09:19:45;;;;;;;12.85;2.83;;;;;;;;;;4915386;29;20056;-65
2022/01/18 09:22:16;;;;;;;8.75;2.80;;;;;;;;;;4913262;29;20071;-66
2022/01/18 09:24:46;;;;;;;8.13;2.80;;;;;;;;;;4897966;29;20056;-65
2022/01/18 09:27:17;;;;;;;9.43;3.15;;;;;;;;;;4913779;29;20178;-65
2022/01/18 09:29:48;;;;;;;10.20;3.17;;;;;;;;;;4920562;29;20468;-65
2022/01/18 09:32:18;;;;;;;7.00;2.70;;;;;;;;;;4922266;29;20064;-66
2022/01/18 09:34:50;;;;;;;13.45;3.00;;;;;;;;;;4922802;29;20056;-66
2022/01/18 09:37:20;;;;;;;10.02;2.90;;;;;;;;;;4921209;29;20064;-66
2022/01/18 09:39:53;;;;;;;12.98;2.88;;;;;;;;;;4932943;29;20059;-65
2022/01/18 09:42:27;;;;;;;;;;;;;;;;;;4963844;28;20073;-65
2022/01/18 09:45:00;;;;;;;15.43;3.88;;;;;;;;;;4990672;28;19926;-66
2022/01/18 09:47:30;;;;;;;10.93;2.90;;;;;;;;;;4990703;28;20066;-64
2022/01/18 09:50:01;;;;;;;12.45;2.97;;;;;;;;;;4990351;28;20073;-65
2022/01/18 09:52:31;;;;;;;9.40;3.22;;;;;;;;;;4953205;28;20572;-65
2022/01/18 09:55:03;;;;;;;15.48;3.05;;;;;;;;;;5031915;28;20065;-66
2022/01/18 09:57:33;;;;;;;14.07;2.78;;;;;;;;;;5016430;28;20053;-66
2022/01/18 10:00:06;;;;;;;9.25;2.70;;;;;;;;;;5049673;28;20455;-65
2022/01/18 10:02:39;;;;;;;7.18;2.78;;;;;;;;;;5050027;28;20156;-65
2022/01/18 10:05:26;;;;;;;10.70;2.95;;;;;;;;;;5009810;28;20406;-65
2022/01/18 10:07:58;;;;;;;12.25;3.50;;;;;;;;;;5010206;28;20525;-65
2022/01/18 10:10:50;;;;;;;9.98;2.88;;;;;;;;;;5010172;28;20058;-65
2022/01/18 10:13:23;;;;;;;8.02;2.83;;;;;;;;;;4995428;28;20529;-65
2022/01/18 10:16:12;;;;;;;8.30;3.15;;;;;;;;;;5010065;28;20045;-66
2022/01/18 10:18:48;;;;;;;8.95;3.25;;;;;;;;;;5009596;28;20520;-65
2022/01/18 10:21:35;;;;;;;11.13;3.40;;;;;;;;;;4977240;28;20062;-66
2022/01/18 10:24:22;;;;;;;20.15;4.25;;;;;;;;;;5009746;28;20119;-64
2022/01/18 10:26:55;;;;;;;14.20;4.20;;;;;;;;;;4993803;28;20529;-66
2022/01/18 10:29:31;;;;;;;8.90;2.95;;;;;;;;;;5015557;28;20065;-64
2022/01/18 10:32:12;;;;;;;10.65;3.05;;;;;;;;;;5008785;28;20050;-65
2022/01/18 10:37:28;;;;;;;20.95;3.95;;;;;;;;;;4952539;28;20053;-66
2022/01/18 10:40:03;;;;;;;16.38;3.60;;;;;;;;;;5009123;28;20061;-65
2022/01/18 10:42:41;;;;;;;11.50;3.25;;;;;;;;;;5025364;28;20057;-65
2022/01/18 10:45:31;;;;;;;15.60;3.33;;;;;;;;;;4977116;28;20049;-65
2022/01/18 10:48:12;;;;;;;7.95;3.03;;;;;;;;;;5008636;28;20126;-66
2022/01/18 10:50:46;;;;;;;12.75;3.28;;;;;;;;;;5001457;28;20155;-66
2022/01/18 10:53:19;;;;;;;16.25;3.67;;;;;;;;;;4951220;28;20055;-66
2022/01/18 10:56:11;;;;;;;12.15;4.10;;;;;;;;;;5008761;28;20060;-65
2022/01/18 10:58:55;;;;;;;16.48;4.90;;;;;;;;;;4976692;28;20058;-66
2022/01/18 11:01:26;;;;;;;9.10;5.18;;;;;;;;;;4992297;28;20061;-66
2022/01/18 11:04:11;;;;;;;13.63;3.97;;;;;;;;;;4964272;28;20055;-66
2022/01/18 11:06:55;;;;;;;12.98;3.38;;;;;;;;;;4936773;28;20058;-65
2022/01/18 11:09:26;;;;;;;8.63;3.00;;;;;;;;;;4958004;28;20039;-65
2022/01/18 11:11:56;;;;;;;8.20;3.35;;;;;;;;;;4937418;28;20050;-66
2022/01/18 11:14:29;;;;;;;9.30;2.67;;;;;;;;;;4934557;28;20054;-66
2022/01/18 11:17:02;;;;;;;11.05;2.65;;;;;;;;;;4990644;28;20045;-66
2022/01/18 11:19:35;;;;;;;15.13;3.50;;;;;;;;;;4998121;28;20046;-64
2022/01/18 11:22:10;;;;;;;11.25;3.75;;;;;;;;;;4998594;28;20049;-65
2022/01/18 11:24:47;;;;;;;11.50;3.90;;;;;;;;;;4998849;28;20077;-64
2022/01/18 11:27:18;;;;;;;6.57;3.35;;;;;;;;;;4998632;28;20057;-67
2022/01/18 11:29:49;;;;;;;11.07;3.10;;;;;;;;;;4982666;28;20054;-66
2022/01/18 11:32:21;;;;;;;18.40;5.40;;;;;;;;;;4998976;28;20073;-65
2022/01/18 11:35:07;;;;;;;14.88;4.32;;;;;;;;;;4996902;28;20054;-67
2022/01/18 11:37:57;;;;;;;11.48;3.85;;;;;;;;;;4997590;28;20042;-65
2022/01/18 11:40:46;;;;;;;10.98;3.28;;;;;;;;;;5000272;28;20062;-66
2022/01/18 11:43:35;;;;;;;4.68;1.90;;;;;;;;;;5046450;28;20525;-65
2022/01/18 11:46:22;;;;;;;3.60;1.27;;;;;;;;;;5004539;28;20069;-64
2022/01/18 11:49:04;;;;;;;4.60;1.15;;;;;;;;;;5029939;28;20049;-66
2022/01/18 11:51:49;;;;;;;7.05;1.30;;;;;;;;;;5031203;28;20049;-66
2022/01/18 11:57:24;;;;;;;6.65;1.10;;;;;;;;;;5032969;28;20489;-67
2022/01/18 12:00:18;;;;;;;1.38;0.90;;;;;;;;;;5028324;28;20049;-67
2022/01/18 12:02:52;;;;;;;4.65;1.23;;;;;;;;;;5028313;28;20068;-67
2022/01/18 12:05:25;;;;;;;4.25;1.00;;;;;;;;;;5028225;28;20425;-67
2022/01/18 12:08:01;;;;;;;1.67;0.85;;;;;;;;;;5028503;28;20042;-69
2022/01/18 12:10:38;;;;;;;2.25;0.90;;;;;;;;;;5028256;28;20540;-69
2022/01/18 12:13:14;;;;;;;1.63;1.00;;;;;;;;;;5029603;28;20049;-69
2022/01/18 12:15:45;;;;;;;4.78;0.93;;;;;;;;;;4998880;28;20053;-68
2022/01/18 12:18:18;;;;;;;4.38;1.10;;;;;;;;;;5031640;28;20057;-71
2022/01/18 12:20:52;;;;;;;;;;;;;;;;;;5048876;28;20052;-67
2022/01/18 12:23:27;;;;;;;5.15;1.10;;;;;;;;;;5018776;28;19921;-69
2022/01/18 12:26:20;;;;;;;5.78;1.10;;;;;;;;;;5051416;28;20052;-67
2022/01/18 12:34:33;;;;;;;1.70;0.80;;;;;;;;;;5031149;28;20060;-70
2022/01/18 12:37:07;;;;;;;3.35;0.85;;;;;;;;;;5032098;28;20046;-69
2022/01/18 12:39:51;;;;;;;2.17;1.08;;;;;;;;;;5015436;28;20490;-70
2022/01/18 12:45:10;;;;;;;3.40;0.93;;;;;;;;;;5033639;28;20041;-65
2022/01/18 12:47:49;;;;;;;6.00;1.20;;;;;;;;;;4998382;28;20058;-67
2022/01/18 12:50:23;;;;;;;1.83;0.82;;;;;;;;;;5033632;28;20072;-69
2022/01/18 12:52:58;;;;;;;5.43;1.73;;;;;;;;;;5030771;28;20045;-67
2022/01/18 12:55:38;;;;;;;3.72;0.93;;;;;;;;;;4979680;28;20572;-66
2022/01/18 12:58:31;;;;;;;4.00;1.60;;;;;;;;;;5010882;28;20046;-68
2022/01/18 13:01:08;;;;;;;1.70;0.80;;;;;;;;;;5011255;28;20062;-69
2022/01/18 13:03:43;;;;;;;7.10;0.93;;;;;;;;;;5010745;28;20069;-71
2022/01/18 13:06:17;;;;;;;4.63;0.90;;;;;;;;;;4990796;28;20062;-68
2022/01/18 13:08:53;;;;;;;3.85;1.20;;;;;;;;;;4974739;28;20069;-72
2022/01/18 13:11:31;;;;;;;6.15;1.20;;;;;;;;;;4974593;28;20053;-64
2022/01/18 13:14:11;;;;;;;2.30;1.00;;;;;;;;;;4991026;28;20050;-64
2022/01/18 13:25:13;;;;;;;4.65;1.00;;;;;;;;;;4974113;28;20054;-65
2022/01/18 13:27:48;;;;;;;1.85;0.73;;;;;;;;;;4974144;28;20070;-71
2022/01/18 13:30:25;;;;;;;3.13;1.63;;;;;;;;;;4971378;28;20043;-67
2022/01/18 13:32:59;;;;;;;3.10;0.95;;;;;;;;;;4971036;28;20074;-69
2022/01/18 13:35:31;;;;;;;6.72;1.17;;;;;;;;;;4971477;28;20055;-70
2022/01/18 13:38:08;;;;;;;2.80;0.90;;;;;;;;;;4977687;28;20059;-66
2022/01/18 13:40:42;;;;;;;2.90;1.00;;;;;;;;;;4971677;28;20078;-67
2022/01/18 13:43:15;;;;;;;3.63;1.00;;;;;;;;;;4931694;28;20528;-66
2022/01/18 13:45:46;;;;;;;2.65;0.95;;;;;;;;;;5010461;28;20401;-64
2022/01/18 13:48:16;;;;;;;3.75;0.90;;;;;;;;;;4923043;28;20054;-64
2022/01/18 13:50:51;;;;;;;4.75;0.93;;;;;;;;;;4923963;28;20562;-64
2022/01/18 13:53:28;;;;;;;2.25;0.88;;;;;;;;;;4936004;29;20055;-68
2022/01/18 13:56:08;;;;;;;3.78;0.90;;;;;;;;;;4951917;29;20503;-66
2022/01/18 13:58:42;;;;;;;2.55;1.00;;;;;;;;;;4952153;29;20054;-66
2022/01/18 14:01:14;;;;;;;5.35;1.13;;;;;;;;;;4936371;28;20059;-67
2022/01/18 14:03:47;;;;;;;4.68;1.00;;;;;;;;;;4986545;28;20054;-69
2022/01/18 14:06:19;;;;;;;2.55;0.57;;;;;;;;;;4968849;28;20090;-67
2022/01/18 14:08:51;;;;;;;2.00;0.80;;;;;;;;;;4999082;28;20049;-66
2022/01/18 14:11:29;;;;;;;5.43;1.05;;;;;;;;;;5001366;28;20054;-70
2022/01/18 14:14:14;;;;;;;2.22;1.10;;;;;;;;;;4997397;28;20058;-65
2022/01/18 14:16:53;;;;;;;3.08;0.82;;;;;;;;;;4989726;28;20054;-65
2022/01/18 14:19:41;;;;;;;5.60;0.70;;;;;;;;;;5008695;28;20561;-67
2022/01/18 14:22:26;;;;;;;3.70;0.98;;;;;;;;;;4975070;28;20049;-67
2022/01/18 14:25:04;;;;;;;2.60;1.05;;;;;;;;;;5008067;28;20061;-66
2022/01/18 14:27:41;;;;;;;1.15;0.68;;;;;;;;;;4998547;28;20062;-65
2022/01/18 14:30:25;;;;;;;2.88;0.95;;;;;;;;;;5009051;28;20460;-70
2022/01/18 14:32:56;;;;;;;6.80;1.00;;;;;;;;;;5009208;28;20065;-65
2022/01/18 14:35:27;;;;;;;3.08;1.08;;;;;;;;;;4989032;28;20050;-68
2022/01/18 14:38:00;;;;;;;5.82;1.13;;;;;;;;;;4940662;28;20058;-64
2022/01/18 14:40:36;;;;;;;3.50;0.85;;;;;;;;;;4989598;28;20143;-67
2022/01/18 14:43:13;;;;;;;2.53;0.95;;;;;;;;;;4958443;28;20530;-65
2022/01/18 14:45:59;;;;;;;3.38;0.90;;;;;;;;;;4989668;28;20050;-65
2022/01/18 14:48:36;;;;;;;4.22;1.05;;;;;;;;;;4937290;29;20056;-64
2022/01/18 14:51:08;;;;;;;;;;;;;;;;;;4913610;29;20064;-65
2022/01/18 14:53:38;;;;;;;7.20;0.90;;;;;;;;;;4874128;29;19924;-64
2022/01/18 14:56:08;;;;;;;4.00;0.98;;;;;;;;;;4859652;29;20053;-66
2022/01/18 14:58:38;;;;;;;3.13;0.85;;;;;;;;;;4906528;29;20533;-63
2022/01/18 15:01:09;;;;;;;3.20;0.98;;;;;;;;;;4875562;29;20057;-66
2022/01/18 15:03:39;;;;;;;5.65;0.77;;;;;;;;;;4867575;29;20065;-67
2022/01/18 15:06:09;;;;;;;3.95;0.73;;;;;;;;;;4887349;29;20447;-64
2022/01/18 15:08:41;;;;;;;4.38;0.80;;;;;;;;;;4912850;29;20064;-65
2022/01/18 15:11:11;;;;;;;2.78;0.82;;;;;;;;;;4894500;29;20482;-69
2022/01/18 15:13:41;;;;;;;4.60;1.05;;;;;;;;;;4999772;28;20045;-63
2022/01/18 15:16:12;;;;;;;2.13;1.02;;;;;;;;;;5009430;28;20083;-65
2022/01/18 15:18:41;;;;;;;1.95;0.93;;;;;;;;;;4969985;28;20423;-68
2022/01/18 15:21:12;;;;;;;3.95;1.73;;;;;;;;;;4969977;28;20051;-66
2022/01/18 15:23:42;;;;;;;3.60;1.40;;;;;;;;;;4922535;28;20051;-66
2022/01/18 15:26:13;;;;;;;2.35;1.25;;;;;;;;;;5008686;28;20054;-70
2022/01/18 15:28:43;;;;;;;2.40;1.15;;;;;;;;;;4989164;28;20061;-65
2022/01/18 15:31:14;;;;;;;3.25;1.23;;;;;;;;;;4989429;28;20049;-69
2022/01/18 15:33:45;;;;;;;3.72;1.45;;;;;;;;;;4941228;28;20481;-67
2022/01/18 15:36:15;;;;;;;5.57;1.10;;;;;;;;;;4989169;28;20065;-70
2022/01/18 15:38:45;;;;;;;2.50;0.93;;;;;;;;;;4940938;28;20091;-66
2022/01/18 15:41:16;;;;;;;3.40;1.10;;;;;;;;;;4950423;28;20403;-65
2022/01/18 15:43:46;;;;;;;2.55;1.27;;;;;;;;;;4950834;28;20094;-68
2022/01/18 15:46:17;;;;;;;6.30;1.15;;;;;;;;;;4949887;28;20507;-65
2022/01/18 15:48:50;;;;;;;3.88;1.40;;;;;;;;;;4953211;28;20043;-65
2022/01/18 15:51:21;;;;;;;2.90;1.13;;;;;;;;;;4944548;28;20083;-67
2022/01/18 15:53:52;;;;;;;1.52;1.05;;;;;;;;;;4934867;29;20081;-70
2022/01/18 15:56:23;;;;;;;4.40;1.42;;;;;;;;;;4943776;29;20066;-67
2022/01/18 15:58:54;;;;;;;4.50;1.15;;;;;;;;;;4935269;29;20059;-69
2022/01/18 16:01:24;;;;;;;;;;;;;;;;;;4903867;29;20047;-66
2022/01/18 16:03:54;;;;;;;2.15;1.02;;;;;;;;;;4944523;29;20001;-71
2022/01/18 16:06:24;;;;;;;3.47;1.20;;;;;;;;;;4973930;28;20059;-67
2022/01/18 16:08:55;;;;;;;3.38;1.50;;;;;;;;;;4976808;28;20054;-67
2022/01/18 16:11:25;;;;;;;3.75;1.70;;;;;;;;;;4944151;28;20050;-65
2022/01/18 16:13:55;;;;;;;2.40;1.40;;;;;;;;;;4992473;28;20513;-67
2022/01/18 16:16:26;;;;;;;5.63;1.08;;;;;;;;;;4992673;28;20055;-66
2022/01/18 16:18:57;;;;;;;3.85;1.00;;;;;;;;;;5014185;28;20513;-66
2022/01/18 16:21:27;;;;;;;4.40;1.08;;;;;;;;;;5034250;28;20050;-65
2022/01/18 16:23:58;;;;;;;2.53;1.33;;;;;;;;;;4999590;28;20080;-68
2022/01/18 16:26:29;;;;;;;4.80;1.10;;;;;;;;;;4979096;28;20038;-67
2022/01/18 16:28:59;;;;;;;3.28;0.93;;;;;;;;;;5011850;28;20105;-68
2022/01/18 16:31:33;;;;;;;5.97;1.13;;;;;;;;;;5011835;28;20065;-67
2022/01/18 16:34:05;;;;;;;5.35;1.17;;;;;;;;;;4972153;28;20400;-66
2022/01/18 16:36:37;;;;;;;4.85;1.10;;;;;;;;;;4972630;28;20069;-70
2022/01/18 16:39:07;;;;;;;4.28;1.20;;;;;;;;;;4972716;28;20063;-66
2022/01/18 16:41:38;;;;;;;2.17;1.02;;;;;;;;;;4972721;28;20054;-70
2022/01/18 16:44:09;;;;;;;3.63;1.27;;;;;;;;;;4972773;28;20070;-69
2022/01/18 16:46:42;;;;;;;2.67;1.00;;;;;;;;;;4987869;28;20062;-67
2022/01/18 16:49:12;;;;;;;3.58;1.60;;;;;;;;;;4972513;28;20051;-69